This is the latest recevied weather packets stored in our database for station/object N4OGP-WX. If no packets are shown the sender has not sent any weather packets the latest 1 day(s).
| Time | Temp. | Humidity | Pressure | Rain* | Wind** | Luminosity | Snow |
|---|---|---|---|---|---|---|---|
| 1778078517 | 24.44° C | 86% | 1013 hPa | 0 mm | - | - | - |
| 1778078337 | 24.44° C | 86% | 1013 hPa | 0 mm | - | - | - |
| 1778078247 | 24.44° C | 86% | 1013 hPa | 0 mm | - | - | - |
| 1778078097 | 23.89° C | 42% | 1020.4 hPa | 0 mm | - | - | - |
| 1778077887 | 23.89° C | 42% | 1020.4 hPa | 0 mm | - | - | - |
| 1778077797 | 24.44° C | 87% | 1012.9 hPa | 0 mm | - | - | - |
| 1778077617 | 23.89° C | 42% | 1020.4 hPa | 0 mm | - | - | - |
| 1778077317 | 24.44° C | 87% | 1012.8 hPa | 0 mm | - | - | - |
| 1778077257 | 24.44° C | 87% | 1012.8 hPa | 0 mm | - | - | - |
| 1778077107 | 24.44° C | 87% | 1012.8 hPa | 0 mm | - | - | - |
| 1778076957 | 23.89° C | 42% | 1020.4 hPa | 0 mm | - | - | - |
| 1778076897 | 24.44° C | 87% | 1012.7 hPa | 0 mm | - | - | - |
| 1778076747 | 24.44° C | 87% | 1012.7 hPa | 0 mm | - | - | - |
| 1778076387 | 24.44° C | 88% | 1012.5 hPa | 0 mm | - | - | - |
| 1778076237 | 24.44° C | 88% | 1012.6 hPa | 0 mm | - | - | - |
| 1778076117 | 23.89° C | 42% | 1020.4 hPa | 0 mm | - | - | - |
| 1778075877 | 23.89° C | 42% | 1020.4 hPa | 0 mm | - | - | - |
| 1778075727 | 23.89° C | 88% | 1012.6 hPa | 0 mm | - | - | - |
| 1778075637 | 23.89° C | 88% | 1012.6 hPa | 0 mm | - | - | - |
| 1778075547 | 23.89° C | 42% | 1020.4 hPa | 0 mm | - | - | - |
| 1778075427 | 23.89° C | 42% | 1020.4 hPa | 0 mm | - | - | - |
| 1778075277 | 23.89° C | 88% | 1012.7 hPa | 0 mm | - | - | - |
| 1778075217 | 23.89° C | 42% | 1020.4 hPa | 0 mm | - | - | - |
| 1778075157 | 23.89° C | 42% | 1020.4 hPa | 0 mm | - | - | - |
| 1778075067 | 23.89° C | 42% | 1020.4 hPa | 0 mm | - | - | - |
* Rain latest hour (hover to see other rain measurements)
** Current wind speed in m/s (hover to see current wind gust speed)